Weather at Piggs Peak Airport

Public forecast

Using degrees Celsius for public forecast. Weather courtesy of forecast.io.

Closest aviation weather report (METAR) to Piggs Peak Airport

Closest report is Kruger Mpumalanga International Airport, 27.0 nm (50.0 km) NNW. Retrieved 2020/09/29 15:00 UTC (49 minutes ago):

FAKN 291500Z 01012KT 9999 -DZ SCT015 BKN025 19/14 Q1022 TEMPO BKN015

Closest aviation forecast (TAF) to Piggs Peak Airport

Forecast is more than 12 hours old.

Closest forecast is Kruger Mpumalanga International Airport, 27.0 nm (50.0 km) NNW. Retrieved 2017/06/05 04:55 UTC (3 years ago):

TAF FAKN 050300Z 0504/0515 25006KT CAVOK BECMG 0511/0513 13005KT SCT030 BECMG 0513/0515 07005KT TX22/0513ZTN08/0504Z